Time;durP1;ratioP1;P1;durP2;ratioP2;P2;SDS_P1;SDS_P2;PMS_P1;PMS_P2;Temp;Humidity;BMP_temperature;BMP_pressure;BME280_temperature;BME280_humidity;BME280_pressure;Samples;Min_cycle;Max_cycle;Signal;HPM_P1;HPM_P2
2021/06/02 00:00:23;;;;;;;7.20;6.00;;;;;;;19.42;52.58;100349.91;5108972;28;20515;-68
2021/06/02 00:02:53;;;;;;;8.20;5.70;;;;;;;19.48;52.61;100355.38;5115715;28;20426;-69
2021/06/02 00:05:19;;;;;;;6.67;5.03;;;;;;;19.53;52.08;100343.94;5113340;28;20455;-69
2021/06/02 00:07:46;;;;;;;5.90;5.30;;;;;;;19.53;52.17;100352.09;5098425;28;20451;-69
2021/06/02 00:10:16;;;;;;;5.50;5.00;;;;;;;19.29;52.88;100347.94;5100777;28;20527;-69
2021/06/02 00:12:42;;;;;;;7.93;5.40;;;;;;;19.03;53.61;100348.53;5124216;28;20561;-68
2021/06/02 00:15:10;;;;;;;5.60;5.00;;;;;;;19.03;53.72;100349.34;5118861;28;20533;-69
2021/06/02 00:17:37;;;;;;;6.47;5.63;;;;;;;19.39;52.77;100348.44;5123830;28;20905;-69
2021/06/02 00:20:03;;;;;;;6.30;5.23;;;;;;;19.26;52.67;100348.31;5120517;28;20442;-70
2021/06/02 00:22:30;;;;;;;8.43;6.30;;;;;;;18.55;56.19;100366.09;5123757;28;20681;-69
2021/06/02 00:24:56;;;;;;;10.47;6.43;;;;;;;18.66;56.10;100370.16;5113164;28;20533;-69
2021/06/02 00:27:24;;;;;;;7.73;6.00;;;;;;;18.89;55.24;100358.38;5122850;28;20477;-69
2021/06/02 00:29:51;;;;;;;7.30;6.60;;;;;;;18.01;57.44;100351.03;5112686;28;20481;-69
2021/06/02 00:32:20;;;;;;;7.20;6.50;;;;;;;18.16;57.17;100337.50;5103277;28;20502;-69
2021/06/02 00:34:46;;;;;;;7.67;5.93;;;;;;;18.74;55.92;100339.44;5099775;28;21189;-70
2021/06/02 00:37:13;;;;;;;7.80;5.77;;;;;;;18.74;55.53;100342.97;5102512;28;20475;-70
2021/06/02 00:39:40;;;;;;;7.70;6.77;;;;;;;17.91;58.39;100346.94;5100076;28;20597;-70
2021/06/02 00:42:06;;;;;;;11.10;7.10;;;;;;;17.95;58.33;100354.50;5102425;28;20474;-70
2021/06/02 00:44:34;;;;;;;8.70;6.47;;;;;;;18.54;56.37;100355.44;5104842;28;20473;-70
2021/06/02 00:47:01;;;;;;;7.17;5.97;;;;;;;18.73;55.49;100346.72;5121765;28;20502;-70
2021/06/02 00:49:27;;;;;;;7.20;5.83;;;;;;;18.73;55.44;100344.03;5117900;28;20866;-70
2021/06/02 00:51:56;;;;;;;7.07;6.37;;;;;;;18.68;55.63;100348.31;5118788;28;20540;-70
2021/06/02 00:54:22;;;;;;;9.07;6.40;;;;;;;18.71;55.66;100346.06;5120643;28;20539;-69
2021/06/02 00:56:50;;;;;;;6.50;5.70;;;;;;;18.86;54.94;100342.50;5122764;28;20982;-69
2021/06/02 00:59:17;;;;;;;7.40;6.60;;;;;;;18.78;55.65;100343.44;5119094;28;20495;-70
2021/06/02 01:01:45;;;;;;;13.10;6.73;;;;;;;18.64;55.82;100342.44;5102293;28;20806;-70
2021/06/02 01:04:12;;;;;;;8.07;6.57;;;;;;;18.61;56.07;100340.97;5100751;28;20452;-70
2021/06/02 01:06:40;;;;;;;8.50;7.17;;;;;;;18.48;56.55;100348.09;5116185;28;20478;-70
2021/06/02 01:09:07;;;;;;;8.40;7.00;;;;;;;18.61;56.21;100338.25;5121825;28;20501;-71
2021/06/02 01:11:34;;;;;;;6.87;5.77;;;;;;;18.76;55.62;100346.31;5102302;28;20487;-70
2021/06/02 01:14:01;;;;;;;9.40;6.60;;;;;;;18.84;55.46;100345.41;5102957;28;20757;-69
2021/06/02 01:16:29;;;;;;;8.07;6.20;;;;;;;18.81;55.85;100348.47;5120370;28;20466;-69
2021/06/02 01:18:57;;;;;;;7.20;6.00;;;;;;;18.83;55.72;100353.72;5108956;28;20435;-68
2021/06/02 01:21:25;;;;;;;7.13;6.20;;;;;;;19.02;55.23;100346.84;5112646;28;20482;-69
2021/06/02 01:23:56;;;;;;;6.47;5.80;;;;;;;19.02;55.00;100347.66;5090759;28;20463;-70
2021/06/02 01:26:23;;;;;;;8.53;6.50;;;;;;;18.85;55.33;100355.19;5081255;28;20534;-70
2021/06/02 01:28:49;;;;;;;9.80;5.87;;;;;;;18.75;56.00;100344.66;5087018;28;20480;-70
2021/06/02 01:31:16;;;;;;;9.37;7.10;;;;;;;18.81;55.81;100346.59;5101819;28;20543;-70
2021/06/02 01:33:52;;;;;;;9.37;6.30;;;;;;;18.94;55.46;100343.22;5095874;28;20440;-70
2021/06/02 01:36:24;;;;;;;8.83;6.30;;;;;;;18.74;55.79;100345.69;5101342;28;20503;-70
2021/06/02 01:39:20;;;;;;;9.37;6.57;;;;;;;18.73;56.09;100348.56;5094910;28;20490;-71
2021/06/02 01:42:02;;;;;;;7.90;6.80;;;;;;;18.58;56.47;100338.63;5097267;28;20486;-70
2021/06/02 01:44:43;;;;;;;8.80;6.23;;;;;;;18.59;56.58;100347.59;5098704;28;20927;-70
2021/06/02 01:47:49;;;;;;;7.43;6.10;;;;;;;18.60;56.65;100344.69;5121960;28;20488;-69
2021/06/02 01:50:49;;;;;;;8.77;7.03;;;;;;;18.58;56.32;100340.50;5104205;28;20510;-69
2021/06/02 01:53:48;;;;;;;8.00;7.20;;;;;;;18.31;56.97;100336.63;5102408;28;20570;-68
2021/06/02 01:56:44;;;;;;;8.83;6.37;;;;;;;18.20;57.70;100327.97;5094571;28;21086;-70
2021/06/02 01:59:48;;;;;;;9.70;5.90;;;;;;;18.19;57.83;100325.44;5098710;28;20456;-70
2021/06/02 02:02:34;;;;;;;9.03;6.40;;;;;;;18.35;57.58;100327.09;5058562;28;20508;-70
2021/06/02 02:05:21;;;;;;;7.97;6.57;;;;;;;18.47;57.45;100324.75;5080701;28;20452;-69
2021/06/02 02:08:09;;;;;;;8.80;6.30;;;;;;;18.54;57.08;100331.06;5085875;28;20515;-70
2021/06/02 02:10:40;;;;;;;9.03;7.10;;;;;;;18.67;56.42;100330.41;5094538;28;20474;-70
2021/06/02 02:13:33;;;;;;;7.30;6.60;;;;;;;18.64;56.51;100334.31;5106109;28;20655;-69
2021/06/02 02:16:19;;;;;;;11.37;6.33;;;;;;;18.61;56.78;100337.44;5088359;28;20986;-69
2021/06/02 02:19:00;;;;;;;10.50;7.13;;;;;;;18.75;56.33;100322.16;5104069;28;20440;-69
2021/06/02 02:21:35;;;;;;;8.80;6.83;;;;;;;18.76;56.10;100329.25;5097293;28;20911;-69
2021/06/02 02:24:03;;;;;;;7.53;6.73;;;;;;;18.76;56.04;100319.25;5100300;28;20527;-69
2021/06/02 02:26:34;;;;;;;8.63;6.57;;;;;;;18.70;56.20;100320.03;5102800;28;20573;-70
2021/06/02 02:29:08;;;;;;;7.50;6.80;;;;;;;18.84;56.26;100325.63;5103148;28;20790;-69
2021/06/02 02:31:45;;;;;;;8.30;6.40;;;;;;;18.86;56.02;100328.97;5064529;28;20536;-69
2021/06/02 02:34:34;;;;;;;8.63;6.53;;;;;;;18.73;56.62;100318.78;5068091;28;20440;-69
2021/06/02 02:37:04;;;;;;;9.17;6.60;;;;;;;18.91;55.98;100321.94;5104789;28;20478;-69
2021/06/02 02:39:36;;;;;;;9.30;6.50;;;;;;;18.82;56.38;100320.41;5099511;28;20497;-69
2021/06/02 02:42:07;;;;;;;6.40;5.80;;;;;;;18.87;56.12;100322.50;5102159;28;20524;-68
2021/06/02 02:44:54;;;;;;;7.30;6.40;;;;;;;18.72;56.67;100315.25;5096438;28;20472;-69
2021/06/02 02:47:27;;;;;;;13.10;7.13;;;;;;;18.80;56.80;100319.69;5084551;28;20507;-69
2021/06/02 02:50:00;;;;;;;7.17;6.47;;;;;;;18.67;57.24;100309.56;5089525;28;20505;-70
2021/06/02 02:52:39;;;;;;;8.13;6.53;;;;;;;18.59;57.23;100312.38;5104137;28;20545;-71
2021/06/02 02:55:09;;;;;;;7.43;5.87;;;;;;;18.61;57.59;100310.34;5077227;28;20527;-69
2021/06/02 02:57:39;;;;;;;7.97;6.63;;;;;;;18.59;57.30;100302.41;5085186;28;20507;-69
2021/06/02 03:00:09;;;;;;;7.17;6.43;;;;;;;18.68;57.52;100304.97;5082682;28;20517;-68
2021/06/02 03:02:41;;;;;;;8.93;6.70;;;;;;;18.66;57.40;100312.47;5084757;28;20515;-69
2021/06/02 03:05:12;;;;;;;8.10;6.40;;;;;;;18.65;57.55;100310.81;5090982;28;20530;-69
2021/06/02 03:07:41;;;;;;;8.33;7.07;;;;;;;18.74;56.93;100323.19;5105439;28;20490;-69
2021/06/02 03:10:09;;;;;;;9.53;6.43;;;;;;;18.80;56.66;100314.28;5092079;28;20451;-69
2021/06/02 03:12:47;;;;;;;8.57;6.57;;;;;;;18.76;56.93;100303.00;5084020;28;20498;-70
2021/06/02 03:15:42;;;;;;;9.10;5.87;;;;;;;18.59;58.08;100310.53;5084951;28;20456;-69
2021/06/02 03:18:17;;;;;;;8.50;5.90;;;;;;;18.73;57.23;100307.94;5099713;28;20511;-68
2021/06/02 03:20:47;;;;;;;7.43;6.77;;;;;;;18.62;57.72;100312.00;5097278;28;20550;-70
2021/06/02 03:23:25;;;;;;;10.00;6.03;;;;;;;18.56;57.91;100313.63;5100148;28;20503;-69
2021/06/02 03:25:58;;;;;;;9.50;6.63;;;;;;;18.70;57.39;100317.31;5103773;28;20523;-70
2021/06/02 03:28:39;;;;;;;8.03;6.77;;;;;;;18.81;57.14;100310.53;5093482;28;20486;-69
2021/06/02 03:31:14;;;;;;;7.90;6.60;;;;;;;18.77;57.20;100314.69;5084324;28;20924;-69
2021/06/02 03:33:53;;;;;;;7.63;6.60;;;;;;;18.98;56.85;100314.69;5083786;28;20504;-69
2021/06/02 03:36:29;;;;;;;7.07;6.37;;;;;;;19.62;54.90;100317.53;5103090;28;20475;-71
2021/06/02 03:39:05;;;;;;;6.87;6.03;;;;;;;20.46;52.86;100317.31;5089788;28;20494;-69
2021/06/02 03:41:41;;;;;;;7.90;6.60;;;;;;;21.22;50.33;100318.13;5087994;28;21018;-69
2021/06/02 03:44:18;;;;;;;9.53;6.47;;;;;;;21.66;48.88;100327.53;5104270;28;20494;-69
2021/06/02 03:46:54;;;;;;;6.23;5.40;;;;;;;22.63;46.01;100324.91;5077616;28;20566;-68
2021/06/02 03:49:27;;;;;;;6.33;5.73;;;;;;;23.14;44.49;100334.06;5104167;28;20438;-69
2021/06/02 03:51:57;;;;;;;7.03;5.93;;;;;;;23.39;43.59;100327.78;5099890;28;20557;-69
2021/06/02 03:54:29;;;;;;;8.43;6.30;;;;;;;23.73;42.77;100328.28;5101954;28;20455;-69
2021/06/02 03:57:23;;;;;;;7.50;6.80;;;;;;;24.22;41.62;100329.25;5091280;28;20582;-69
2021/06/02 03:59:59;;;;;;;10.03;7.10;;;;;;;24.97;40.09;100326.13;5039419;28;20454;-70
2021/06/02 04:02:33;;;;;;;8.30;6.00;;;;;;;25.17;39.85;100328.56;5040539;28;21001;-70
2021/06/02 04:05:12;;;;;;;8.20;5.77;;;;;;;26.07;38.06;100329.31;5039349;28;20528;-70
2021/06/02 04:07:45;;;;;;;8.93;6.00;;;;;;;26.77;36.50;100326.59;5040869;28;20508;-70
2021/06/02 04:10:13;;;;;;;6.57;5.67;;;;;;;27.29;35.58;100333.84;5035967;28;20505;-66
2021/06/02 04:12:45;;;;;;;9.93;6.00;;;;;;;27.52;34.94;100330.09;5039577;28;20542;-68
2021/06/02 04:15:12;;;;;;;9.03;5.60;;;;;;;28.27;33.38;100323.19;5039737;28;20449;-68
2021/06/02 04:17:41;;;;;;;6.90;5.70;;;;;;;27.60;34.55;100330.50;5040722;28;20469;-69
2021/06/02 04:20:09;;;;;;;10.00;6.93;;;;;;;27.34;34.44;100328.44;5032274;28;20478;-69
2021/06/02 04:22:36;;;;;;;7.10;6.07;;;;;;;27.99;33.55;100325.03;5019598;28;20447;-69
2021/06/02 04:25:02;;;;;;;7.00;6.30;;;;;;;27.90;32.95;100321.03;5023059;28;20537;-70
2021/06/02 04:27:28;;;;;;;5.50;4.87;;;;;;;29.85;30.55;100323.00;5019224;28;20542;-68
2021/06/02 04:30:01;;;;;;;6.27;5.67;;;;;;;30.30;29.72;100328.19;5038545;28;20458;-68
2021/06/02 04:32:31;;;;;;;6.60;5.57;;;;;;;30.69;28.58;100323.03;5038370;28;20544;-70
2021/06/02 04:34:59;;;;;;;6.83;5.10;;;;;;;31.21;28.01;100331.41;5044360;28;20544;-69
2021/06/02 04:37:25;;;;;;;5.93;5.33;;;;;;;31.26;28.22;100323.13;5064371;28;20487;-70
2021/06/02 04:39:52;;;;;;;10.17;6.43;;;;;;;31.53;27.30;100315.41;5072439;28;20539;-70
2021/06/02 04:42:19;;;;;;;8.00;6.30;;;;;;;31.65;27.30;100322.56;5099168;28;21145;-69
2021/06/02 04:44:46;;;;;;;6.57;5.93;;;;;;;30.33;29.21;100319.34;5080097;28;20432;-69
2021/06/02 04:47:12;;;;;;;6.30;5.70;;;;;;;28.02;33.29;100320.09;5090184;28;20508;-69
2021/06/02 04:49:49;;;;;;;9.40;6.37;;;;;;;26.93;35.78;100322.25;5088320;28;20465;-69
2021/06/02 04:52:58;;;;;;;9.30;5.80;;;;;;;26.86;35.80;100325.16;5085125;28;20535;-70
2021/06/02 04:55:34;;;;;;;6.17;5.60;;;;;;;26.02;37.30;100317.41;5107357;28;20489;-70
2021/06/02 04:58:23;;;;;;;7.93;7.13;;;;;;;25.39;38.91;100319.00;5120533;28;20506;-68
2021/06/02 05:01:19;;;;;;;6.77;6.17;;;;;;;25.04;39.90;100315.09;5105816;28;20565;-68
2021/06/02 05:04:36;;;;;;;12.03;7.07;;;;;;;24.73;40.50;100317.03;5100905;28;20443;-69
2021/06/02 05:07:38;;;;;;;9.83;6.33;;;;;;;27.18;36.19;100321.84;5095061;28;21021;-69
2021/06/02 05:10:48;;;;;;;8.77;6.90;;;;;;;30.41;30.29;100327.97;5081556;28;20455;-70
2021/06/02 05:13:55;;;;;;;7.70;6.90;;;;;;;32.46;26.02;100327.00;5102107;28;20478;-69
2021/06/02 05:16:41;;;;;;;6.53;5.93;;;;;;;33.60;24.51;100335.31;5061925;28;20495;-68
2021/06/02 05:19:58;;;;;;;8.27;7.10;;;;;;;33.50;24.24;100327.91;5090179;28;20437;-71
2021/06/02 05:23:15;;;;;;;6.90;6.20;;;;;;;33.14;24.79;100333.78;5058027;28;21001;-70
2021/06/02 05:26:15;;;;;;;9.87;6.57;;;;;;;33.57;24.30;100336.69;5054005;28;20551;-69
2021/06/02 05:29:02;;;;;;;6.60;5.90;;;;;;;35.15;22.24;100339.72;5045120;28;20552;-70
2021/06/02 05:31:59;;;;;;;7.73;6.07;;;;;;;35.33;21.86;100338.88;5045087;28;20533;-71
2021/06/02 05:34:58;;;;;;;6.13;5.53;;;;;;;33.74;23.59;100335.47;5046003;28;20448;-70
2021/06/02 05:37:55;;;;;;;6.73;6.00;;;;;;;32.99;24.28;100325.56;5050205;28;20516;-68
2021/06/02 05:40:33;;;;;;;6.07;5.23;;;;;;;35.55;21.57;100327.06;5024407;28;20553;-69
2021/06/02 05:43:41;;;;;;;5.80;5.30;;;;;;;33.81;23.29;100318.47;5054492;28;20560;-69
2021/06/02 05:46:23;;;;;;;6.53;5.30;;;;;;;31.81;25.74;100324.19;5047530;28;20503;-69
2021/06/02 05:49:32;;;;;;;6.20;5.60;;;;;;;30.24;28.82;100321.78;5061519;28;20900;-70
2021/06/02 05:52:07;;;;;;;6.50;5.67;;;;;;;31.99;26.32;100321.91;5022133;28;20580;-69
2021/06/02 05:54:58;;;;;;;10.00;5.17;;;;;;;34.62;21.99;100313.03;5056639;28;20531;-70
2021/06/02 05:57:57;;;;;;;7.40;6.40;;;;;;;31.29;26.48;100311.53;5076014;28;20497;-69
2021/06/02 06:00:52;;;;;;;8.10;5.80;;;;;;;31.87;24.85;100317.53;5103749;28;20446;-67
2021/06/02 06:03:50;;;;;;;6.37;5.73;;;;;;;28.87;29.53;100310.38;5106103;28;20502;-70
2021/06/02 06:06:23;;;;;;;6.60;5.87;;;;;;;27.78;32.08;100320.31;5104083;28;20477;-69
2021/06/02 06:09:30;;;;;;;7.30;5.73;;;;;;;25.68;35.86;100323.50;5104394;28;20503;-69
2021/06/02 06:12:17;;;;;;;5.90;5.23;;;;;;;25.32;37.11;100321.84;5083992;28;20482;-69
2021/06/02 06:15:22;;;;;;;9.93;6.37;;;;;;;26.40;35.64;100324.22;5088877;28;20533;-69
2021/06/02 06:18:07;;;;;;;9.40;5.80;;;;;;;25.98;35.80;100316.25;5104749;28;20505;-69
2021/06/02 06:20:46;;;;;;;6.50;5.80;;;;;;;24.91;38.23;100321.63;5100858;28;20497;-70
2021/06/02 06:23:47;;;;;;;9.33;7.10;;;;;;;25.53;37.35;100321.25;5099730;28;20439;-72
2021/06/02 06:26:15;;;;;;;6.20;5.60;;;;;;;27.07;34.30;100326.31;5083372;28;20463;-71
2021/06/02 06:28:45;;;;;;;5.97;5.17;;;;;;;27.54;33.80;100326.00;5104877;28;20454;-72
2021/06/02 06:31:15;;;;;;;8.13;5.90;;;;;;;27.72;33.67;100313.91;5102563;28;20562;-71
2021/06/02 06:33:43;;;;;;;10.93;6.20;;;;;;;27.28;33.75;100326.72;5104009;28;20587;-70
2021/06/02 06:36:10;;;;;;;5.43;4.93;;;;;;;29.08;31.14;100327.91;5103521;28;20471;-70
2021/06/02 06:38:49;;;;;;;13.00;5.40;;;;;;;30.20;28.97;100323.44;5103187;28;20443;-70
2021/06/02 06:41:16;;;;;;;9.63;6.00;;;;;;;30.84;27.64;100329.72;5101595;28;20475;-74
2021/06/02 06:43:44;;;;;;;11.53;5.43;;;;;;;33.02;25.24;100322.22;5103831;28;20443;-75
2021/06/02 06:46:13;;;;;;;9.13;6.07;;;;;;;32.91;24.93;100324.22;5100462;28;20463;-75
2021/06/02 06:48:39;;;;;;;9.00;5.90;;;;;;;32.26;25.70;100313.25;5103967;28;20909;-73
2021/06/02 06:51:09;;;;;;;6.17;5.67;;;;;;;32.11;26.23;100311.38;5102396;28;20478;-74
2021/06/02 06:53:36;;;;;;;8.13;6.00;;;;;;;30.87;27.38;100309.84;5086638;28;20495;-75
2021/06/02 06:56:02;;;;;;;5.90;5.40;;;;;;;30.36;28.98;100318.84;5082530;28;20547;-74
2021/06/02 06:58:30;;;;;;;7.73;6.27;;;;;;;30.30;28.51;100315.22;5083984;28;20467;-74
2021/06/02 07:00:58;;;;;;;7.17;6.47;;;;;;;30.93;28.77;100317.88;5084349;28;20502;-71
2021/06/02 07:03:24;;;;;;;6.00;5.23;;;;;;;34.24;23.51;100313.00;5083934;28;20512;-72
2021/06/02 07:05:50;;;;;;;6.90;6.30;;;;;;;35.07;22.49;100310.69;5082056;28;20508;-75
2021/06/02 07:08:19;;;;;;;6.97;6.27;;;;;;;35.14;22.12;100311.09;5082712;28;20452;-69
2021/06/02 07:10:45;;;;;;;10.67;5.97;;;;;;;36.37;21.34;100316.28;5098277;28;20471;-70
2021/06/02 07:13:12;;;;;;;6.67;6.00;;;;;;;34.10;22.94;100312.88;5103856;28;20527;-68
2021/06/02 07:15:38;;;;;;;7.00;6.17;;;;;;;33.52;23.61;100308.22;5101724;28;20998;-74
2021/06/02 07:18:06;;;;;;;8.60;5.20;;;;;;;35.84;22.22;100302.94;5088230;28;20480;-71
2021/06/02 07:20:32;;;;;;;6.83;4.60;;;;;;;37.30;20.09;100310.19;5089679;28;20471;-72
2021/06/02 07:23:01;;;;;;;7.30;5.63;;;;;;;36.47;21.18;100304.09;5080970;28;20428;-73
2021/06/02 07:25:29;;;;;;;6.47;5.70;;;;;;;36.87;20.32;100304.28;5082490;28;20493;-69
2021/06/02 07:28:01;;;;;;;9.10;5.33;;;;;;;37.21;19.89;100302.94;5082767;28;20449;-67
2021/06/02 07:30:28;;;;;;;6.00;5.50;;;;;;;37.09;20.24;100298.72;5080229;28;20472;-70
2021/06/02 07:32:55;;;;;;;7.17;6.17;;;;;;;36.47;20.87;100290.19;5082813;28;20472;-70
2021/06/02 07:35:21;;;;;;;7.30;5.10;;;;;;;37.68;20.04;100292.19;5081906;28;20485;-71
2021/06/02 07:37:47;;;;;;;6.27;5.43;;;;;;;36.72;20.57;100300.75;5082471;28;20458;-69
2021/06/02 07:40:14;;;;;;;10.33;6.40;;;;;;;36.41;20.89;100305.38;5081636;28;20459;-68
2021/06/02 07:42:42;;;;;;;7.13;5.23;;;;;;;35.34;21.75;100304.38;5082498;28;20440;-68
2021/06/02 07:45:09;;;;;;;8.20;4.60;;;;;;;36.60;21.07;100303.25;5080743;28;20512;-69
2021/06/02 07:47:35;;;;;;;7.87;5.87;;;;;;;36.10;20.91;100306.00;5082276;28;20458;-76
2021/06/02 07:50:02;;;;;;;6.97;5.27;;;;;;;36.36;20.83;100301.53;5082091;28;20491;-75
2021/06/02 07:52:28;;;;;;;6.40;5.80;;;;;;;36.71;20.65;100307.44;5086170;28;20521;-73
2021/06/02 07:54:55;;;;;;;6.57;5.10;;;;;;;37.02;19.83;100308.69;5095827;28;20881;-77
2021/06/02 07:57:21;;;;;;;5.50;5.00;;;;;;;37.47;19.58;100311.44;5101156;28;20475;-74
2021/06/02 07:59:49;;;;;;;5.77;5.13;;;;;;;36.24;20.77;100317.16;5106064;28;20446;-71
2021/06/02 08:02:15;;;;;;;6.73;5.17;;;;;;;35.13;22.17;100317.78;5121284;28;21021;-72
2021/06/02 08:04:42;;;;;;;5.00;4.50;;;;;;;35.60;22.05;100317.81;5122848;28;21067;-69
2021/06/02 08:07:08;;;;;;;5.60;5.00;;;;;;;33.76;24.41;100317.41;5108060;28;20475;-75
2021/06/02 08:09:34;;;;;;;5.90;5.33;;;;;;;33.88;23.73;100310.63;5103962;28;20493;-69
2021/06/02 08:12:01;;;;;;;5.47;4.70;;;;;;;35.73;21.83;100322.59;5101656;28;20506;-71
2021/06/02 08:14:27;;;;;;;5.00;4.60;;;;;;;36.81;20.16;100317.53;5099935;28;20458;-72
2021/06/02 08:16:55;;;;;;;9.53;5.10;;;;;;;34.70;22.31;100317.88;5097320;28;20579;-73
2021/06/02 08:19:21;;;;;;;6.73;4.57;;;;;;;33.33;24.63;100321.97;5093600;28;20451;-73
2021/06/02 08:21:47;;;;;;;6.20;5.07;;;;;;;32.42;25.49;100323.13;5101374;28;20661;-70
2021/06/02 08:24:13;;;;;;;6.50;5.37;;;;;;;31.72;26.65;100325.88;5099509;28;20454;-69
2021/06/02 08:26:41;;;;;;;5.77;4.70;;;;;;;30.70;28.02;100321.97;5100891;28;20475;-69
2021/06/02 08:29:08;;;;;;;11.47;4.80;;;;;;;30.60;28.15;100319.19;5104251;28;20905;-71
2021/06/02 08:31:34;;;;;;;8.70;4.70;;;;;;;30.58;28.37;100316.69;5109602;28;20550;-71
2021/06/02 08:34:02;;;;;;;6.67;5.13;;;;;;;30.44;28.46;100312.78;5099068;28;20491;-67
2021/06/02 08:36:29;;;;;;;6.70;4.57;;;;;;;30.56;28.79;100315.31;5100844;28;20513;-76
2021/06/02 08:38:55;;;;;;;6.03;5.17;;;;;;;30.25;29.59;100325.41;5100403;28;20506;-71
2021/06/02 08:41:21;;;;;;;8.17;5.10;;;;;;;29.74;30.51;100324.03;5104876;28;20486;-68
2021/06/02 08:43:48;;;;;;;6.03;4.80;;;;;;;29.97;30.89;100316.44;5111899;28;20947;-68
2021/06/02 08:46:15;;;;;;;7.27;5.20;;;;;;;30.46;29.50;100320.81;5114346;28;20531;-74
2021/06/02 08:48:44;;;;;;;7.03;4.50;;;;;;;30.48;29.12;100319.41;5081872;28;20460;-69
2021/06/02 08:51:12;;;;;;;6.17;5.53;;;;;;;30.59;28.41;100312.84;5093821;28;20474;-68
2021/06/02 08:53:39;;;;;;;5.63;5.10;;;;;;;30.55;28.61;100321.91;5100032;28;20490;-72
2021/06/02 08:56:06;;;;;;;5.63;4.43;;;;;;;30.91;27.86;100333.84;5100565;28;20475;-66
2021/06/02 08:58:32;;;;;;;4.97;4.50;;;;;;;31.04;26.09;100327.00;5121856;28;20437;-68
2021/06/02 09:00:59;;;;;;;5.23;4.33;;;;;;;30.98;25.77;100331.69;5092917;28;20478;-68
2021/06/02 09:03:25;;;;;;;7.30;4.73;;;;;;;30.94;27.45;100329.75;5101394;28;20499;-66
2021/06/02 09:05:51;;;;;;;7.53;4.57;;;;;;;31.59;26.23;100330.03;5097742;28;20616;-67
2021/06/02 09:08:19;;;;;;;5.97;4.67;;;;;;;32.00;24.82;100332.69;5091238;28;20452;-72
2021/06/02 09:10:46;;;;;;;4.97;4.47;;;;;;;33.30;23.31;100322.59;5080356;28;20476;-72
2021/06/02 09:13:17;;;;;;;5.73;4.90;;;;;;;32.26;23.02;100325.16;5081333;28;20563;-71
2021/06/02 09:15:44;;;;;;;7.53;5.00;;;;;;;32.89;24.06;100323.69;5093069;28;20465;-71
2021/06/02 09:18:15;;;;;;;9.37;4.83;;;;;;;32.89;23.70;100326.47;5121758;28;20446;-75
2021/06/02 09:20:43;;;;;;;5.93;4.27;;;;;;;32.06;24.07;100320.53;5086819;28;20469;-76
2021/06/02 09:23:32;;;;;;;4.87;4.23;;;;;;;31.80;25.17;100322.50;5096528;28;20481;-69
2021/06/02 09:26:18;;;;;;;6.23;4.50;;;;;;;32.45;23.38;100319.78;5109131;28;20629;-69
2021/06/02 09:28:45;;;;;;;4.53;4.13;;;;;;;33.90;22.49;100333.34;5109504;28;20557;-72
2021/06/02 09:31:31;;;;;;;4.50;4.10;;;;;;;34.78;21.61;100331.13;5104113;28;20470;-71
2021/06/02 09:33:59;;;;;;;8.53;4.70;;;;;;;36.91;19.29;100325.66;5102664;28;20925;-70
2021/06/02 09:36:27;;;;;;;5.90;3.37;;;;;;;37.48;18.30;100327.84;5107032;28;20478;-73
2021/06/02 09:38:58;;;;;;;5.63;3.83;;;;;;;37.85;17.81;100334.09;5120831;28;20422;-73
2021/06/02 09:41:25;;;;;;;4.57;4.17;;;;;;;36.60;18.99;100335.81;5120990;28;21392;-73
2021/06/02 09:43:51;;;;;;;5.50;4.40;;;;;;;37.17;18.50;100332.53;5121913;28;20460;-73
2021/06/02 09:46:18;;;;;;;7.67;4.03;;;;;;;38.36;18.02;100326.22;5101446;28;20477;-73
2021/06/02 09:48:59;;;;;;;5.60;4.23;;;;;;;37.65;18.30;100329.09;5100882;28;20447;-73
2021/06/02 09:51:29;;;;;;;3.83;3.33;;;;;;;38.58;17.21;100335.66;5090825;28;20483;-68
2021/06/02 09:53:58;;;;;;;4.70;4.17;;;;;;;36.53;17.86;100330.72;5096522;28;20578;-73
2021/06/02 09:56:38;;;;;;;4.60;4.10;;;;;;;35.70;20.35;100323.19;5104356;28;20502;-72
2021/06/02 09:59:06;;;;;;;4.30;3.90;;;;;;;35.67;19.44;100331.31;5092763;28;20538;-73
2021/06/02 10:01:54;;;;;;;4.33;3.93;;;;;;;36.89;19.19;100327.94;5093012;28;20474;-72
2021/06/02 10:04:28;;;;;;;5.53;4.23;;;;;;;37.01;18.90;100330.13;5100185;28;20853;-75
2021/06/02 10:06:54;;;;;;;5.07;4.57;;;;;;;36.41;18.21;100336.00;5096252;28;20535;-74
2021/06/02 10:09:26;;;;;;;5.63;4.30;;;;;;;36.55;19.08;100331.22;5099193;28;20868;-72
2021/06/02 10:11:56;;;;;;;5.80;4.67;;;;;;;36.13;20.13;100331.25;5092494;28;20478;-71
2021/06/02 10:14:22;;;;;;;4.30;3.87;;;;;;;36.88;18.23;100331.03;5096569;28;20534;-68
2021/06/02 10:16:49;;;;;;;4.57;3.93;;;;;;;36.19;18.66;100341.13;5110791;28;20474;-68
2021/06/02 10:19:15;;;;;;;6.60;4.20;;;;;;;35.95;19.55;100344.13;5113058;28;20458;-69
2021/06/02 10:21:45;;;;;;;5.13;4.37;;;;;;;35.75;19.53;100336.22;5100355;28;20575;-68
2021/06/02 10:24:11;;;;;;;5.00;4.23;;;;;;;36.97;18.05;100329.13;5090911;28;20447;-72
2021/06/02 10:26:39;;;;;;;4.83;4.30;;;;;;;35.15;20.68;100331.38;5096872;28;20509;-70
2021/06/02 10:29:06;;;;;;;5.47;4.50;;;;;;;35.70;20.22;100337.09;5104967;28;20495;-67
2021/06/02 10:31:32;;;;;;;4.90;4.37;;;;;;;35.51;20.26;100333.56;5102780;28;20888;-74
2021/06/02 10:33:59;;;;;;;5.43;3.90;;;;;;;36.40;20.71;100331.56;5101422;28;20479;-72
2021/06/02 10:36:25;;;;;;;4.67;4.27;;;;;;;36.23;19.15;100330.22;5108241;28;20469;-71
2021/06/02 10:38:54;;;;;;;4.33;3.50;;;;;;;34.33;20.88;100327.84;5110080;28;20489;-71
2021/06/02 10:41:24;;;;;;;4.57;4.17;;;;;;;34.64;20.23;100336.56;5103923;28;20509;-71
2021/06/02 10:43:53;;;;;;;5.27;4.47;;;;;;;32.49;24.79;100331.13;5104950;28;20427;-70
2021/06/02 10:46:21;;;;;;;6.30;4.20;;;;;;;32.36;23.22;100329.81;5117198;28;20508;-71
2021/06/02 10:48:51;;;;;;;6.33;4.03;;;;;;;35.43;20.83;100326.72;5104493;28;20436;-72
2021/06/02 10:51:25;;;;;;;4.83;3.87;;;;;;;31.72;23.54;100329.47;5102610;28;20526;-72
2021/06/02 10:54:03;;;;;;;4.50;4.10;;;;;;;30.06;25.25;100323.09;5103679;28;20578;-72
2021/06/02 10:56:29;;;;;;;4.87;3.93;;;;;;;31.91;22.32;100326.09;5109839;28;20462;-72
2021/06/02 10:58:57;;;;;;;4.10;3.70;;;;;;;33.71;20.80;100322.19;5119670;28;20474;-74
2021/06/02 11:01:23;;;;;;;8.00;4.40;;;;;;;32.42;22.79;100320.38;5096425;28;20471;-73
2021/06/02 11:04:13;;;;;;;6.07;4.63;;;;;;;30.27;25.35;100321.25;5093378;28;20778;-74
2021/06/02 11:06:41;;;;;;;5.73;4.60;;;;;;;31.08;24.54;100335.56;5094253;28;20472;-72
2021/06/02 11:09:28;;;;;;;5.77;3.50;;;;;;;31.57;23.44;100326.72;5102849;28;20799;-72
2021/06/02 11:12:04;;;;;;;4.63;4.13;;;;;;;32.22;24.04;100323.22;5105717;28;20510;-72
2021/06/02 11:14:32;;;;;;;4.90;4.40;;;;;;;32.96;22.63;100324.19;5101445;28;20492;-72
2021/06/02 11:17:09;;;;;;;5.93;4.20;;;;;;;32.79;21.05;100318.22;5098287;28;20490;-73
2021/06/02 11:19:38;;;;;;;4.60;3.30;;;;;;;33.66;20.95;100324.97;5097501;28;20457;-73
2021/06/02 11:22:06;;;;;;;4.67;3.63;;;;;;;32.32;22.51;100323.19;5102148;28;20479;-69
2021/06/02 11:24:41;;;;;;;4.13;3.73;;;;;;;30.84;23.09;100324.19;5088550;28;20444;-71
2021/06/02 11:27:39;;;;;;;4.73;3.60;;;;;;;32.93;21.43;100326.72;5119806;28;20705;-71
2021/06/02 11:30:30;;;;;;;4.07;3.67;;;;;;;31.21;22.49;100328.66;5110383;28;20474;-71
2021/06/02 11:33:14;;;;;;;5.37;4.80;;;;;;;31.24;24.27;100326.16;5103053;28;20470;-69
2021/06/02 11:36:04;;;;;;;4.53;4.10;;;;;;;30.50;24.41;100327.44;5108496;28;20504;-69
2021/06/02 11:38:31;;;;;;;6.60;4.00;;;;;;;31.08;24.82;100332.81;5122745;28;20431;-70
2021/06/02 11:40:57;;;;;;;7.37;4.03;;;;;;;31.49;23.10;100328.13;5120484;28;20478;-70
2021/06/02 11:43:24;;;;;;;4.17;3.80;;;;;;;33.53;22.74;100329.28;5103263;28;20482;-70
2021/06/02 11:45:55;;;;;;;4.73;4.13;;;;;;;33.90;21.40;100328.63;5095378;28;20485;-70
2021/06/02 11:48:23;;;;;;;4.37;3.40;;;;;;;34.28;20.20;100323.19;5103172;28;20463;-70
2021/06/02 11:50:50;;;;;;;4.07;3.33;;;;;;;34.78;20.08;100330.31;5102818;28;20473;-70
2021/06/02 11:53:16;;;;;;;5.37;3.63;;;;;;;33.73;19.91;100329.09;5101286;28;20499;-70
2021/06/02 11:55:42;;;;;;;4.37;3.97;;;;;;;33.00;21.05;100316.97;5114316;28;20582;-70